createdAt,value
2023-05-22T00:01:07.726Z,9.80
2023-05-22T00:06:27.288Z,8.40
2023-05-22T00:08:55.270Z,8.00
2023-05-22T00:11:28.688Z,8.40
2023-05-22T00:13:57.004Z,9.30
2023-05-22T00:16:43.421Z,8.60
2023-05-22T00:19:17.368Z,8.40
2023-05-22T00:21:48.307Z,7.60
2023-05-22T00:24:19.708Z,8.30
2023-05-22T00:26:47.595Z,8.70
2023-05-22T00:29:15.271Z,10.60
2023-05-22T00:31:43.122Z,9.00
2023-05-22T00:34:30.248Z,8.20
2023-05-22T00:36:58.025Z,8.30
2023-05-22T00:39:26.058Z,9.10
2023-05-22T00:41:53.826Z,8.70
2023-05-22T00:44:22.769Z,11.20
2023-05-22T00:46:51.149Z,8.50
2023-05-22T00:49:21.775Z,7.80
2023-05-22T00:51:52.257Z,8.50
2023-05-22T00:54:20.339Z,9.60
2023-05-22T00:56:52.350Z,9.70
2023-05-22T00:59:38.478Z,11.50
2023-05-22T01:02:06.271Z,9.50
2023-05-22T01:04:53.769Z,10.70
2023-05-22T01:07:22.103Z,11.90
2023-05-22T01:09:49.790Z,9.60
2023-05-22T01:12:54.245Z,8.30
2023-05-22T01:15:57.312Z,8.90
2023-05-22T01:22:30.751Z,9.00
2023-05-22T01:25:47.345Z,10.80
2023-05-22T01:28:39.352Z,9.10
2023-05-22T01:31:14.153Z,8.60
2023-05-22T01:34:02.527Z,8.50
2023-05-22T01:39:40.303Z,10.30
2023-05-22T01:42:08.289Z,10.10
2023-05-22T01:44:35.971Z,10.30
2023-05-22T01:47:05.690Z,9.60
2023-05-22T01:49:35.909Z,10.20
2023-05-22T01:52:44.646Z,10.90
2023-05-22T01:55:21.217Z,9.40
2023-05-22T01:58:27.982Z,10.00
2023-05-22T02:01:16.369Z,10.30
2023-05-22T02:03:57.465Z,10.00
2023-05-22T02:06:29.036Z,10.00
2023-05-22T02:08:57.574Z,10.40
2023-05-22T02:11:30.295Z,8.70
2023-05-22T02:14:09.257Z,9.60
2023-05-22T02:16:56.542Z,10.00
2023-05-22T02:19:24.748Z,9.30
2023-05-22T02:21:52.676Z,9.80
2023-05-22T02:24:20.672Z,9.20
2023-05-22T02:26:53.941Z,8.80
2023-05-22T02:29:24.511Z,9.50
2023-05-22T02:31:54.616Z,10.60
2023-05-22T02:34:26.712Z,10.90
2023-05-22T02:37:15.486Z,10.50
2023-05-22T02:39:43.158Z,9.00
2023-05-22T02:42:12.182Z,10.00
2023-05-22T02:44:40.026Z,10.90
2023-05-22T02:47:27.146Z,12.00
2023-05-22T02:49:57.735Z,10.30
2023-05-22T02:55:32.639Z,11.10
2023-05-22T02:58:00.306Z,9.10
2023-05-22T03:00:28.099Z,11.20
2023-05-22T03:02:55.830Z,11.60
2023-05-22T03:05:43.339Z,9.30
2023-05-22T03:08:11.749Z,11.40
2023-05-22T03:13:27.757Z,11.20
2023-05-22T03:15:55.758Z,10.30
2023-05-22T03:18:25.925Z,9.80
2023-05-22T03:21:22.808Z,9.60
2023-05-22T03:23:50.697Z,9.10
2023-05-22T03:26:18.692Z,10.60
2023-05-22T03:28:52.387Z,11.40
2023-05-22T03:31:22.504Z,9.50
2023-05-22T03:36:54.521Z,11.10
2023-05-22T03:42:07.856Z,9.50
2023-05-22T03:44:38.121Z,10.20
2023-05-22T03:47:08.503Z,10.00
2023-05-22T03:49:41.949Z,10.30
2023-05-22T03:52:33.403Z,10.10
2023-05-22T03:55:04.160Z,8.40
2023-05-22T03:57:36.736Z,9.20
2023-05-22T04:00:11.699Z,9.00
2023-05-22T04:02:57.925Z,8.30
2023-05-22T04:08:16.379Z,9.50
2023-05-22T04:10:49.180Z,9.30
2023-05-22T04:13:20.801Z,9.10
2023-05-22T04:15:49.820Z,11.30
2023-05-22T04:18:17.527Z,9.40
2023-05-22T04:21:06.082Z,10.70
2023-05-22T04:24:00.805Z,8.70
2023-05-22T04:26:31.798Z,12.10
2023-05-22T04:28:59.416Z,11.20
2023-05-22T04:31:30.721Z,12.00
2023-05-22T04:34:00.001Z,10.90
2023-05-22T04:36:27.639Z,9.80
2023-05-22T04:39:00.037Z,11.00
2023-05-22T04:41:28.653Z,10.50
2023-05-22T04:43:56.340Z,12.40
2023-05-22T04:46:24.866Z,9.40
2023-05-22T04:49:29.761Z,8.20
2023-05-22T04:51:57.531Z,10.70
2023-05-22T04:54:46.272Z,9.70
2023-05-22T04:57:14.007Z,9.30
2023-05-22T04:59:41.738Z,10.00
2023-05-22T05:02:10.576Z,9.80
2023-05-22T05:04:38.224Z,10.00
2023-05-22T05:07:07.035Z,8.70
2023-05-22T05:09:36.188Z,12.80
2023-05-22T05:12:04.601Z,9.30
2023-05-22T05:14:32.305Z,11.60
2023-05-22T05:17:00.803Z,10.70
2023-05-22T05:19:46.867Z,9.50
2023-05-22T05:22:14.702Z,12.30
2023-05-22T05:24:42.366Z,10.40
2023-05-22T05:27:10.127Z,11.30
2023-05-22T05:29:41.032Z,10.40
2023-05-22T05:32:30.213Z,9.20
2023-05-22T05:34:58.034Z,9.50
2023-05-22T05:37:44.023Z,11.50
2023-05-22T05:40:12.633Z,10.30
2023-05-22T05:43:01.161Z,8.70
2023-05-22T05:45:31.807Z,8.40
2023-05-22T05:48:17.728Z,8.30
2023-05-22T05:50:45.300Z,9.20
2023-05-22T05:53:31.450Z,12.40
2023-05-22T05:56:20.062Z,10.20
2023-05-22T05:59:06.425Z,11.70
2023-05-22T06:06:51.590Z,8.60
2023-05-22T06:09:21.681Z,10.80
2023-05-22T06:11:49.354Z,9.10
2023-05-22T06:14:16.999Z,11.80
2023-05-22T06:16:47.451Z,12.60
2023-05-22T06:19:15.400Z,10.80
2023-05-22T06:24:47.997Z,10.80
2023-05-22T06:27:16.280Z,10.30
2023-05-22T06:29:43.850Z,9.70
2023-05-22T06:32:11.590Z,8.20
2023-05-22T06:34:40.038Z,11.90
2023-05-22T06:37:08.555Z,11.90
2023-05-22T06:42:40.523Z,11.40
2023-05-22T06:45:08.818Z,10.20
2023-05-22T06:47:36.540Z,9.40
2023-05-22T06:50:04.426Z,12.20
2023-05-22T06:52:50.088Z,12.60
2023-05-22T06:55:17.783Z,11.60
2023-05-22T06:57:45.291Z,9.50
2023-05-22T07:00:30.442Z,10.20
2023-05-22T07:02:58.159Z,10.20
2023-05-22T07:05:25.815Z,9.30
2023-05-22T07:07:53.428Z,10.10
2023-05-22T07:10:21.397Z,9.80
2023-05-22T07:12:49.020Z,9.20
2023-05-22T07:15:16.659Z,9.90
2023-05-22T07:18:03.604Z,9.20
2023-05-22T07:20:32.051Z,9.10
2023-05-22T07:23:18.547Z,8.70
2023-05-22T07:25:46.042Z,10.10
2023-05-22T07:28:32.115Z,8.90
2023-05-22T07:33:47.060Z,9.00
2023-05-22T07:36:14.684Z,11.10
2023-05-22T07:39:01.139Z,8.30
2023-05-22T07:41:28.849Z,8.30
2023-05-22T07:43:56.533Z,11.10
2023-05-22T07:46:42.654Z,10.50
2023-05-22T07:49:10.774Z,9.80
2023-05-22T07:51:56.808Z,8.90
2023-05-22T07:54:24.567Z,9.80
2023-05-22T07:59:56.536Z,9.10
2023-05-22T08:02:44.143Z,8.30
2023-05-22T08:05:12.891Z,8.60
2023-05-22T08:07:58.919Z,10.20
2023-05-22T08:10:30.074Z,8.80
2023-05-22T08:13:23.629Z,11.10
2023-05-22T08:18:38.244Z,11.60
2023-05-22T08:26:24.278Z,7.50
2023-05-22T08:28:52.094Z,7.90
2023-05-22T08:31:20.105Z,8.50
2023-05-22T08:33:47.895Z,8.90
2023-05-22T08:36:15.501Z,8.00
2023-05-22T08:38:43.119Z,8.10
2023-05-22T08:41:30.305Z,7.30
2023-05-22T08:44:16.908Z,9.30
2023-05-22T08:46:47.368Z,6.10
2023-05-22T08:49:18.481Z,6.80
2023-05-22T08:51:48.585Z,7.10
2023-05-22T08:54:21.991Z,8.10
2023-05-22T08:56:56.896Z,6.60
2023-05-22T08:59:25.414Z,8.50
2023-05-22T09:01:53.873Z,8.40
2023-05-22T09:06:51.847Z,8.10
2023-05-22T09:09:19.484Z,7.70
2023-05-22T09:11:47.165Z,7.30
2023-05-22T09:14:15.840Z,6.50
2023-05-22T09:16:48.760Z,7.40
2023-05-22T09:19:34.832Z,8.70
2023-05-22T09:22:08.789Z,7.60
2023-05-22T09:24:59.038Z,6.40
2023-05-22T09:27:27.049Z,8.00
2023-05-22T09:30:17.578Z,7.30
2023-05-22T09:32:48.576Z,7.40
2023-05-22T09:35:39.503Z,6.50
2023-05-22T09:38:07.551Z,7.20
2023-05-22T09:43:27.459Z,12.50
2023-05-22T09:46:19.546Z,6.80
2023-05-22T09:48:52.154Z,6.70
2023-05-22T09:54:12.050Z,6.00
2023-05-22T09:57:16.963Z,5.50
2023-05-22T09:59:53.762Z,6.30
2023-05-22T10:02:23.401Z,5.70
2023-05-22T10:04:52.809Z,6.20
2023-05-22T10:07:57.828Z,5.50
2023-05-22T10:10:25.888Z,6.50
2023-05-22T10:13:16.174Z,6.10
2023-05-22T10:15:44.035Z,4.40
2023-05-22T10:18:30.490Z,5.00
2023-05-22T10:20:59.673Z,4.90
2023-05-22T10:23:29.759Z,4.50
2023-05-22T10:30:21.023Z,6.70
2023-05-22T10:33:27.679Z,5.60
2023-05-22T10:36:05.330Z,4.90
2023-05-22T10:38:38.971Z,6.30
2023-05-22T10:41:07.350Z,5.10
2023-05-22T10:43:56.387Z,5.70
2023-05-22T10:46:25.067Z,6.20
2023-05-22T10:48:58.111Z,5.70
2023-05-22T10:51:26.902Z,5.20
2023-05-22T10:54:32.537Z,5.70
2023-05-22T10:57:17.583Z,4.90
2023-05-22T10:59:47.953Z,4.80
2023-05-22T11:02:31.392Z,4.90
2023-05-22T11:05:21.485Z,4.50
2023-05-22T11:07:49.723Z,5.70
2023-05-22T11:10:28.267Z,5.00
2023-05-22T11:13:12.206Z,4.10
2023-05-22T11:16:04.460Z,5.20
2023-05-22T11:18:33.027Z,4.90
2023-05-22T11:23:48.346Z,5.80
2023-05-22T11:26:41.679Z,4.70
2023-05-22T11:29:10.823Z,4.20
2023-05-22T11:31:40.927Z,9.00
2023-05-22T11:34:09.399Z,5.10
2023-05-22T11:36:37.442Z,5.50
2023-05-22T11:39:24.065Z,4.70
2023-05-22T11:41:52.256Z,5.20
2023-05-22T11:44:20.246Z,4.90
2023-05-22T11:46:48.322Z,4.90
2023-05-22T11:49:54.247Z,5.20
2023-05-22T11:52:22.210Z,6.50
2023-05-22T11:54:53.247Z,4.20
2023-05-22T11:57:40.522Z,5.00
2023-05-22T12:00:09.035Z,5.60
2023-05-22T12:02:37.070Z,5.80
2023-05-22T12:05:05.407Z,4.60
2023-05-22T12:07:33.163Z,3.60
2023-05-22T12:10:03.581Z,4.50
2023-05-22T12:15:36.284Z,5.40
2023-05-22T12:20:56.144Z,5.70
2023-05-22T12:23:25.492Z,4.90
2023-05-22T12:26:00.217Z,4.80
2023-05-22T12:28:51.564Z,6.00
2023-05-22T12:31:23.806Z,5.20
2023-05-22T12:33:56.243Z,4.60
2023-05-22T12:36:39.537Z,5.20
2023-05-22T12:42:04.786Z,5.60
2023-05-22T12:44:32.599Z,4.40
2023-05-22T12:47:19.244Z,5.00
2023-05-22T12:49:47.496Z,5.30
2023-05-22T12:52:36.037Z,4.10
2023-05-22T12:55:04.738Z,5.10
2023-05-22T12:57:32.591Z,4.90
2023-05-22T13:02:28.665Z,4.80
2023-05-22T13:05:14.965Z,4.50
2023-05-22T13:07:43.119Z,5.00
2023-05-22T13:10:11.645Z,6.40
2023-05-22T13:12:57.389Z,6.30
2023-05-22T13:15:25.341Z,6.80
2023-05-22T13:17:53.141Z,5.30
2023-05-22T13:20:21.073Z,5.20
2023-05-22T13:22:49.580Z,6.20
2023-05-22T13:28:06.095Z,7.10
2023-05-22T13:30:34.116Z,6.00
2023-05-22T13:38:35.649Z,6.30
2023-05-22T13:41:03.937Z,7.00
2023-05-22T13:43:32.254Z,4.90
2023-05-22T13:46:00.502Z,5.70
2023-05-22T13:50:56.134Z,5.70
2023-05-22T13:56:28.453Z,5.30
2023-05-22T13:58:56.590Z,6.40
2023-05-22T14:03:53.032Z,5.80
2023-05-22T14:06:39.859Z,4.70
2023-05-22T14:09:09.340Z,5.40
2023-05-22T14:11:57.933Z,9.60
2023-05-22T14:14:25.886Z,4.40
2023-05-22T14:19:40.856Z,7.90
2023-05-22T14:22:08.830Z,6.60
2023-05-22T14:24:36.790Z,5.50
2023-05-22T14:27:05.353Z,4.40
2023-05-22T14:29:33.146Z,4.60
2023-05-22T14:34:33.110Z,5.90
2023-05-22T14:39:28.921Z,6.10
2023-05-22T14:41:57.341Z,4.80
2023-05-22T14:44:26.800Z,6.30
2023-05-22T14:46:54.586Z,5.70
2023-05-22T14:49:41.200Z,5.30
2023-05-22T14:52:08.833Z,5.50
2023-05-22T14:54:55.558Z,5.70
2023-05-22T14:57:24.352Z,6.20
2023-05-22T14:59:52.554Z,5.30
2023-05-22T15:02:21.908Z,6.00
2023-05-22T15:04:51.885Z,7.00
2023-05-22T15:07:19.791Z,5.50
2023-05-22T15:09:48.903Z,5.10
2023-05-22T15:12:16.662Z,6.10
2023-05-22T15:14:44.835Z,4.70
2023-05-22T15:17:13.037Z,5.90
2023-05-22T15:19:59.816Z,5.30
2023-05-22T15:22:27.911Z,4.10
2023-05-22T15:27:43.395Z,4.50
2023-05-22T15:30:12.456Z,4.80
2023-05-22T15:32:40.778Z,5.40
2023-05-22T15:37:55.856Z,5.00
2023-05-22T15:40:24.042Z,5.20
2023-05-22T15:42:53.034Z,6.00
2023-05-22T15:45:21.809Z,4.80
2023-05-22T15:47:49.425Z,5.20
2023-05-22T15:53:22.895Z,4.50
2023-05-22T15:55:50.969Z,4.70
2023-05-22T15:58:18.604Z,5.00
2023-05-22T16:00:46.601Z,4.20
2023-05-22T16:06:01.267Z,5.00
2023-05-22T16:08:47.375Z,4.20
2023-05-22T16:11:15.550Z,5.10
2023-05-22T16:16:29.333Z,5.80
2023-05-22T16:18:57.624Z,5.00
2023-05-22T16:23:52.946Z,5.20
2023-05-22T16:29:11.167Z,5.00
2023-05-22T16:31:39.262Z,4.50
2023-05-22T16:34:07.010Z,4.30
2023-05-22T16:36:34.973Z,4.60
2023-05-22T16:39:21.695Z,5.50
2023-05-22T16:41:51.556Z,4.60
2023-05-22T16:44:39.755Z,5.40
2023-05-22T16:47:08.137Z,4.20
2023-05-22T16:49:36.608Z,3.90
2023-05-22T16:52:04.774Z,4.70
2023-05-22T16:54:32.553Z,4.80
2023-05-22T16:57:01.039Z,3.80
2023-05-22T17:05:01.006Z,3.50
2023-05-22T17:07:31.639Z,4.20
2023-05-22T17:09:59.511Z,3.90
2023-05-22T17:12:27.431Z,2.80
2023-05-22T17:14:55.422Z,3.30
2023-05-22T17:17:23.259Z,3.20
2023-05-22T17:20:09.600Z,3.00
2023-05-22T17:22:38.985Z,2.70
2023-05-22T17:25:08.052Z,3.00
2023-05-22T17:27:54.194Z,4.70
2023-05-22T17:30:22.119Z,3.60
2023-05-22T17:32:53.339Z,3.50
2023-05-22T17:35:21.684Z,3.10
2023-05-22T17:40:18.272Z,3.60
2023-05-22T17:42:46.861Z,3.20
2023-05-22T17:45:33.544Z,3.50
2023-05-22T17:48:01.711Z,2.70
2023-05-22T17:50:29.678Z,4.60
2023-05-22T17:53:16.389Z,2.60
2023-05-22T17:55:46.520Z,3.20
2023-05-22T17:58:33.843Z,3.80
2023-05-22T18:01:01.571Z,2.60
2023-05-22T18:03:48.061Z,2.50
2023-05-22T18:06:15.938Z,1.60
2023-05-22T18:08:44.229Z,2.00
2023-05-22T18:11:12.094Z,0.90
2023-05-22T18:13:40.183Z,1.30
2023-05-22T18:16:26.851Z,1.40
2023-05-22T18:18:55.037Z,1.70
2023-05-22T18:21:42.195Z,1.50
2023-05-22T18:24:10.445Z,2.40
2023-05-22T18:26:39.197Z,1.90
2023-05-22T18:29:07.427Z,1.10
2023-05-22T18:34:22.186Z,1.30
2023-05-22T18:36:53.047Z,1.50
2023-05-22T18:39:20.704Z,1.20
2023-05-22T18:41:48.663Z,1.60
2023-05-22T18:44:35.169Z,1.70
2023-05-22T18:47:03.460Z,1.30
2023-05-22T18:49:31.730Z,1.20
2023-05-22T18:51:59.910Z,1.40
2023-05-22T18:54:27.977Z,1.10
2023-05-22T18:57:14.326Z,0.80
2023-05-22T18:59:43.355Z,1.50
2023-05-22T19:02:12.771Z,1.40
2023-05-22T19:04:59.429Z,1.30
2023-05-22T19:07:27.381Z,1.00
2023-05-22T19:10:13.772Z,1.60
2023-05-22T19:12:41.822Z,1.80
2023-05-22T19:17:57.366Z,1.30
2023-05-22T19:20:25.293Z,1.70
2023-05-22T19:22:54.087Z,1.10
2023-05-22T19:25:22.044Z,1.50
2023-05-22T19:28:08.472Z,1.20
2023-05-22T19:30:36.668Z,1.40
2023-05-22T19:33:06.497Z,0.80
2023-05-22T19:35:36.044Z,1.60
2023-05-22T19:38:04.133Z,1.40
2023-05-22T19:40:49.316Z,1.70
2023-05-22T19:43:17.879Z,2.00
2023-05-22T19:46:06.484Z,0.80
2023-05-22T19:48:36.374Z,1.50
2023-05-22T19:53:54.515Z,1.60
2023-05-22T19:56:22.278Z,2.10
2023-05-22T19:58:50.036Z,1.80
2023-05-22T20:01:18.120Z,1.20
2023-05-22T20:04:05.252Z,1.70
2023-05-22T20:06:34.020Z,3.10
2023-05-22T20:09:21.045Z,1.90
2023-05-22T20:11:49.210Z,1.40
2023-05-22T20:17:02.758Z,1.20
2023-05-22T20:19:49.427Z,2.50
2023-05-22T20:22:17.346Z,1.40
2023-05-22T20:25:22.789Z,1.50
2023-05-22T20:27:50.976Z,2.10
2023-05-22T20:30:19.129Z,2.00
2023-05-22T20:32:47.432Z,1.30
2023-05-22T20:35:33.837Z,1.60
2023-05-22T20:38:03.338Z,4.90
2023-05-22T20:43:20.256Z,2.10
2023-05-22T20:45:47.852Z,1.70
2023-05-22T20:48:34.378Z,1.80
2023-05-22T20:51:02.470Z,1.40
2023-05-22T20:53:53.430Z,1.70
2023-05-22T20:56:21.388Z,0.90
2023-05-22T21:01:36.259Z,1.60
2023-05-22T21:04:41.656Z,1.30
2023-05-22T21:07:10.627Z,1.60
2023-05-22T21:09:57.008Z,1.30
2023-05-22T21:12:25.477Z,2.00
2023-05-22T21:14:53.650Z,1.90
2023-05-22T21:17:21.331Z,1.80
2023-05-22T21:19:49.080Z,1.60
2023-05-22T21:22:35.889Z,1.40
2023-05-22T21:25:04.751Z,2.10
2023-05-22T21:27:51.158Z,1.90
2023-05-22T21:30:19.258Z,1.80
2023-05-22T21:33:05.987Z,2.30
2023-05-22T21:35:33.769Z,1.60
2023-05-22T21:38:01.972Z,1.80
2023-05-22T21:40:48.512Z,1.90
2023-05-22T21:43:16.890Z,1.90
2023-05-22T21:45:44.650Z,1.70
2023-05-22T21:48:12.741Z,2.00
2023-05-22T21:53:27.120Z,1.60
2023-05-22T21:55:55.072Z,1.80
2023-05-22T21:58:41.787Z,2.20
2023-05-22T22:01:10.197Z,2.30
2023-05-22T22:03:41.160Z,1.40
2023-05-22T22:06:27.408Z,1.90
2023-05-22T22:08:57.922Z,2.30
2023-05-22T22:11:26.476Z,2.20
2023-05-22T22:13:54.879Z,2.20
2023-05-22T22:16:22.614Z,2.50
2023-05-22T22:18:50.857Z,2.20
2023-05-22T22:24:23.467Z,2.20
2023-05-22T22:26:51.503Z,2.50
2023-05-22T22:29:19.538Z,2.50
2023-05-22T22:31:47.066Z,2.30
2023-05-22T22:34:34.048Z,2.40
2023-05-22T22:37:01.811Z,2.70
2023-05-22T22:39:48.631Z,2.80
2023-05-22T22:42:16.546Z,2.60
2023-05-22T22:47:31.427Z,2.70
2023-05-22T22:49:59.253Z,3.10
2023-05-22T22:52:27.631Z,3.30
2023-05-22T22:54:55.921Z,4.10
2023-05-22T22:57:42.411Z,3.10
2023-05-22T23:00:16.065Z,3.00
2023-05-22T23:02:44.260Z,2.80
2023-05-22T23:05:12.235Z,3.30
2023-05-22T23:07:40.380Z,4.00
2023-05-22T23:10:26.322Z,3.50
2023-05-22T23:12:54.100Z,3.30
2023-05-22T23:15:40.735Z,4.00
2023-05-22T23:18:09.460Z,3.60
2023-05-22T23:23:23.009Z,3.70
2023-05-22T23:25:51.106Z,4.00
2023-05-22T23:28:19.190Z,3.70
2023-05-22T23:30:47.312Z,4.00
2023-05-22T23:33:15.947Z,3.80
2023-05-22T23:35:44.022Z,4.00
2023-05-22T23:38:11.779Z,4.00
2023-05-22T23:40:39.888Z,4.00
2023-05-22T23:43:07.818Z,4.50
2023-05-22T23:45:35.894Z,3.90
2023-05-22T23:48:04.232Z,4.50
2023-05-22T23:50:32.652Z,4.70
2023-05-22T23:53:00.921Z,5.80
2023-05-22T23:55:28.895Z,4.50
2023-05-22T23:58:34.128Z,4.30
